sensor_id;sensor_type;location;lat;lon;timestamp;P1;durP1;ratioP1;P2;durP2;ratioP2
9508;SDS011;4792;50.088;8.122;2022-11-20T00:01:28;40.47;;;22.47;;
9508;SDS011;4792;50.088;8.122;2022-11-20T00:03:57;39.73;;;22.10;;
9508;SDS011;4792;50.088;8.122;2022-11-20T00:06:27;39.53;;;22.97;;
9508;SDS011;4792;50.088;8.122;2022-11-20T00:08:56;43.20;;;23.47;;
9508;SDS011;4792;50.088;8.122;2022-11-20T00:11:27;36.93;;;22.03;;
9508;SDS011;4792;50.088;8.122;2022-11-20T00:13:58;38.10;;;22.33;;
9508;SDS011;4792;50.088;8.122;2022-11-20T00:16:29;35.90;;;21.50;;
9508;SDS011;4792;50.088;8.122;2022-11-20T00:18:59;40.83;;;22.70;;
9508;SDS011;4792;50.088;8.122;2022-11-20T00:21:28;41.53;;;22.17;;
9508;SDS011;4792;50.088;8.122;2022-11-20T00:23:56;40.23;;;21.87;;
9508;SDS011;4792;50.088;8.122;2022-11-20T00:26:25;35.03;;;20.77;;
9508;SDS011;4792;50.088;8.122;2022-11-20T00:28:55;40.87;;;22.33;;
9508;SDS011;4792;50.088;8.122;2022-11-20T00:31:26;38.90;;;22.93;;
9508;SDS011;4792;50.088;8.122;2022-11-20T00:33:55;38.93;;;22.47;;
9508;SDS011;4792;50.088;8.122;2022-11-20T00:36:24;38.10;;;22.37;;
9508;SDS011;4792;50.088;8.122;2022-11-20T00:38:53;37.63;;;21.77;;
9508;SDS011;4792;50.088;8.122;2022-11-20T00:41:23;36.60;;;21.77;;
9508;SDS011;4792;50.088;8.122;2022-11-20T00:43:53;37.57;;;21.03;;
9508;SDS011;4792;50.088;8.122;2022-11-20T00:46:22;35.33;;;21.27;;
9508;SDS011;4792;50.088;8.122;2022-11-20T00:48:54;33.77;;;20.27;;
9508;SDS011;4792;50.088;8.122;2022-11-20T00:51:23;32.27;;;20.13;;
9508;SDS011;4792;50.088;8.122;2022-11-20T00:53:54;39.23;;;21.63;;
9508;SDS011;4792;50.088;8.122;2022-11-20T00:56:23;31.83;;;18.80;;
9508;SDS011;4792;50.088;8.122;2022-11-20T00:58:51;35.23;;;19.10;;
9508;SDS011;4792;50.088;8.122;2022-11-20T01:01:21;31.00;;;18.43;;
9508;SDS011;4792;50.088;8.122;2022-11-20T01:03:52;34.70;;;19.00;;
9508;SDS011;4792;50.088;8.122;2022-11-20T01:06:23;27.47;;;18.10;;
9508;SDS011;4792;50.088;8.122;2022-11-20T01:08:53;28.20;;;17.57;;
9508;SDS011;4792;50.088;8.122;2022-11-20T01:11:23;27.73;;;16.53;;
9508;SDS011;4792;50.088;8.122;2022-11-20T01:13:54;30.33;;;17.97;;
9508;SDS011;4792;50.088;8.122;2022-11-20T01:16:24;29.90;;;17.70;;
9508;SDS011;4792;50.088;8.122;2022-11-20T01:18:58;31.67;;;18.70;;
9508;SDS011;4792;50.088;8.122;2022-11-20T01:21:28;30.73;;;18.40;;
9508;SDS011;4792;50.088;8.122;2022-11-20T01:23:58;31.13;;;18.07;;
9508;SDS011;4792;50.088;8.122;2022-11-20T01:26:27;30.13;;;17.77;;
9508;SDS011;4792;50.088;8.122;2022-11-20T01:28:56;30.70;;;18.47;;
9508;SDS011;4792;50.088;8.122;2022-11-20T01:31:26;27.77;;;16.93;;
9508;SDS011;4792;50.088;8.122;2022-11-20T01:33:57;29.70;;;18.23;;
9508;SDS011;4792;50.088;8.122;2022-11-20T01:36:28;30.50;;;18.80;;
9508;SDS011;4792;50.088;8.122;2022-11-20T01:38:58;28.10;;;17.47;;
9508;SDS011;4792;50.088;8.122;2022-11-20T01:41:28;24.27;;;15.53;;
9508;SDS011;4792;50.088;8.122;2022-11-20T01:44:16;28.03;;;17.50;;
9508;SDS011;4792;50.088;8.122;2022-11-20T01:46:48;24.83;;;15.53;;
9508;SDS011;4792;50.088;8.122;2022-11-20T01:49:25;28.70;;;16.93;;
9508;SDS011;4792;50.088;8.122;2022-11-20T01:51:58;28.00;;;17.20;;
9508;SDS011;4792;50.088;8.122;2022-11-20T01:54:34;26.67;;;16.63;;
9508;SDS011;4792;50.088;8.122;2022-11-20T01:57:07;24.43;;;15.87;;
9508;SDS011;4792;50.088;8.122;2022-11-20T01:59:38;25.67;;;15.83;;
9508;SDS011;4792;50.088;8.122;2022-11-20T02:02:11;22.60;;;14.23;;
9508;SDS011;4792;50.088;8.122;2022-11-20T02:04:41;23.50;;;15.40;;
9508;SDS011;4792;50.088;8.122;2022-11-20T02:07:09;24.33;;;15.40;;
9508;SDS011;4792;50.088;8.122;2022-11-20T02:09:39;24.87;;;15.27;;
9508;SDS011;4792;50.088;8.122;2022-11-20T02:12:07;22.27;;;14.77;;
9508;SDS011;4792;50.088;8.122;2022-11-20T02:14:56;25.53;;;15.67;;
9508;SDS011;4792;50.088;8.122;2022-11-20T02:17:24;27.50;;;16.43;;
9508;SDS011;4792;50.088;8.122;2022-11-20T02:19:54;26.00;;;15.53;;
9508;SDS011;4792;50.088;8.122;2022-11-20T02:22:23;26.40;;;16.60;;
9508;SDS011;4792;50.088;8.122;2022-11-20T02:24:57;22.27;;;14.63;;
9508;SDS011;4792;50.088;8.122;2022-11-20T02:27:28;25.50;;;16.33;;
9508;SDS011;4792;50.088;8.122;2022-11-20T02:29:57;25.60;;;17.13;;
9508;SDS011;4792;50.088;8.122;2022-11-20T02:32:29;24.87;;;15.70;;
9508;SDS011;4792;50.088;8.122;2022-11-20T02:35:05;25.93;;;16.30;;
9508;SDS011;4792;50.088;8.122;2022-11-20T02:37:35;24.27;;;15.90;;
9508;SDS011;4792;50.088;8.122;2022-11-20T02:40:09;28.77;;;17.43;;
9508;SDS011;4792;50.088;8.122;2022-11-20T02:42:37;24.80;;;15.83;;
9508;SDS011;4792;50.088;8.122;2022-11-20T02:45:06;26.90;;;17.00;;
9508;SDS011;4792;50.088;8.122;2022-11-20T02:47:35;26.50;;;17.00;;
9508;SDS011;4792;50.088;8.122;2022-11-20T02:50:04;27.73;;;17.23;;
9508;SDS011;4792;50.088;8.122;2022-11-20T02:52:32;29.53;;;17.63;;
9508;SDS011;4792;50.088;8.122;2022-11-20T02:55:00;27.63;;;17.00;;
9508;SDS011;4792;50.088;8.122;2022-11-20T02:57:30;29.17;;;18.00;;
9508;SDS011;4792;50.088;8.122;2022-11-20T03:00:02;25.87;;;16.30;;
9508;SDS011;4792;50.088;8.122;2022-11-20T03:02:31;25.23;;;16.50;;
9508;SDS011;4792;50.088;8.122;2022-11-20T03:05:02;77.50;;;20.90;;
9508;SDS011;4792;50.088;8.122;2022-11-20T03:07:30;25.20;;;16.13;;
9508;SDS011;4792;50.088;8.122;2022-11-20T03:09:58;32.33;;;17.87;;
9508;SDS011;4792;50.088;8.122;2022-11-20T03:12:26;30.10;;;15.77;;
9508;SDS011;4792;50.088;8.122;2022-11-20T03:14:56;34.20;;;17.77;;
9508;SDS011;4792;50.088;8.122;2022-11-20T03:17:24;31.63;;;16.90;;
9508;SDS011;4792;50.088;8.122;2022-11-20T03:19:52;28.43;;;16.93;;
9508;SDS011;4792;50.088;8.122;2022-11-20T03:22:20;27.13;;;16.33;;
9508;SDS011;4792;50.088;8.122;2022-11-20T03:24:49;25.17;;;15.80;;
9508;SDS011;4792;50.088;8.122;2022-11-20T03:27:17;30.10;;;17.27;;
9508;SDS011;4792;50.088;8.122;2022-11-20T03:29:45;63.47;;;19.33;;
9508;SDS011;4792;50.088;8.122;2022-11-20T03:32:15;141.80;;;21.33;;
9508;SDS011;4792;50.088;8.122;2022-11-20T03:34:43;28.97;;;17.17;;
9508;SDS011;4792;50.088;8.122;2022-11-20T03:37:11;28.47;;;16.57;;
9508;SDS011;4792;50.088;8.122;2022-11-20T03:39:40;79.37;;;18.57;;
9508;SDS011;4792;50.088;8.122;2022-11-20T03:42:08;30.07;;;17.83;;
9508;SDS011;4792;50.088;8.122;2022-11-20T03:44:57;26.73;;;16.43;;
9508;SDS011;4792;50.088;8.122;2022-11-20T03:47:26;26.43;;;16.30;;
9508;SDS011;4792;50.088;8.122;2022-11-20T03:49:54;24.83;;;14.57;;
9508;SDS011;4792;50.088;8.122;2022-11-20T03:52:22;21.80;;;13.50;;
9508;SDS011;4792;50.088;8.122;2022-11-20T03:54:51;22.93;;;13.63;;
9508;SDS011;4792;50.088;8.122;2022-11-20T03:57:19;29.10;;;16.30;;
9508;SDS011;4792;50.088;8.122;2022-11-20T03:59:47;56.43;;;17.77;;
9508;SDS011;4792;50.088;8.122;2022-11-20T04:02:15;49.57;;;18.00;;
9508;SDS011;4792;50.088;8.122;2022-11-20T04:04:44;26.33;;;15.03;;
9508;SDS011;4792;50.088;8.122;2022-11-20T04:07:12;27.33;;;15.37;;
9508;SDS011;4792;50.088;8.122;2022-11-20T04:09:41;24.50;;;14.53;;
9508;SDS011;4792;50.088;8.122;2022-11-20T04:12:09;28.27;;;14.90;;
9508;SDS011;4792;50.088;8.122;2022-11-20T04:14:37;28.10;;;15.07;;
9508;SDS011;4792;50.088;8.122;2022-11-20T04:17:05;22.23;;;13.57;;
9508;SDS011;4792;50.088;8.122;2022-11-20T04:19:33;23.13;;;14.07;;
9508;SDS011;4792;50.088;8.122;2022-11-20T04:22:03;21.80;;;13.63;;
9508;SDS011;4792;50.088;8.122;2022-11-20T04:24:31;24.10;;;14.50;;
9508;SDS011;4792;50.088;8.122;2022-11-20T04:27:00;33.43;;;15.27;;
9508;SDS011;4792;50.088;8.122;2022-11-20T04:29:28;33.00;;;15.53;;
9508;SDS011;4792;50.088;8.122;2022-11-20T04:31:56;215.33;;;25.50;;
9508;SDS011;4792;50.088;8.122;2022-11-20T04:34:25;30.47;;;17.23;;
9508;SDS011;4792;50.088;8.122;2022-11-20T04:36:53;42.60;;;18.97;;
9508;SDS011;4792;50.088;8.122;2022-11-20T04:39:23;34.10;;;16.90;;
9508;SDS011;4792;50.088;8.122;2022-11-20T04:41:51;30.37;;;17.03;;
9508;SDS011;4792;50.088;8.122;2022-11-20T04:44:39;72.17;;;19.10;;
9508;SDS011;4792;50.088;8.122;2022-11-20T04:47:07;27.90;;;16.77;;
9508;SDS011;4792;50.088;8.122;2022-11-20T04:49:35;67.77;;;19.73;;
9508;SDS011;4792;50.088;8.122;2022-11-20T04:52:03;24.27;;;15.37;;
9508;SDS011;4792;50.088;8.122;2022-11-20T04:54:33;51.00;;;18.43;;
9508;SDS011;4792;50.088;8.122;2022-11-20T04:57:01;30.40;;;17.67;;
9508;SDS011;4792;50.088;8.122;2022-11-20T04:59:29;49.63;;;18.77;;
9508;SDS011;4792;50.088;8.122;2022-11-20T05:01:58;69.53;;;19.20;;
9508;SDS011;4792;50.088;8.122;2022-11-20T05:04:26;325.67;;;27.77;;
9508;SDS011;4792;50.088;8.122;2022-11-20T05:06:54;68.53;;;17.47;;
9508;SDS011;4792;50.088;8.122;2022-11-20T05:09:22;50.93;;;19.77;;
9508;SDS011;4792;50.088;8.122;2022-11-20T05:11:51;64.03;;;20.20;;
9508;SDS011;4792;50.088;8.122;2022-11-20T05:14:19;63.00;;;19.77;;
9508;SDS011;4792;50.088;8.122;2022-11-20T05:16:48;42.53;;;18.63;;
9508;SDS011;4792;50.088;8.122;2022-11-20T05:19:16;34.57;;;17.13;;
9508;SDS011;4792;50.088;8.122;2022-11-20T05:21:45;73.97;;;18.97;;
9508;SDS011;4792;50.088;8.122;2022-11-20T05:24:13;122.83;;;21.50;;
9508;SDS011;4792;50.088;8.122;2022-11-20T05:26:41;76.07;;;18.60;;
9508;SDS011;4792;50.088;8.122;2022-11-20T05:29:11;108.30;;;22.20;;
9508;SDS011;4792;50.088;8.122;2022-11-20T05:31:40;157.10;;;22.00;;
9508;SDS011;4792;50.088;8.122;2022-11-20T05:34:08;370.30;;;34.97;;
9508;SDS011;4792;50.088;8.122;2022-11-20T05:36:37;42.40;;;20.13;;
9508;SDS011;4792;50.088;8.122;2022-11-20T05:39:05;68.03;;;20.10;;
9508;SDS011;4792;50.088;8.122;2022-11-20T05:41:33;82.60;;;19.83;;
9508;SDS011;4792;50.088;8.122;2022-11-20T05:44:01;41.20;;;19.10;;
9508;SDS011;4792;50.088;8.122;2022-11-20T05:46:31;28.03;;;15.87;;
9508;SDS011;4792;50.088;8.122;2022-11-20T05:48:59;254.30;;;28.13;;
9508;SDS011;4792;50.088;8.122;2022-11-20T05:51:27;79.83;;;20.83;;
9508;SDS011;4792;50.088;8.122;2022-11-20T05:53:55;45.97;;;17.57;;
9508;SDS011;4792;50.088;8.122;2022-11-20T05:56:25;27.90;;;16.33;;
9508;SDS011;4792;50.088;8.122;2022-11-20T05:58:53;42.70;;;19.27;;
9508;SDS011;4792;50.088;8.122;2022-11-20T06:01:22;118.93;;;22.37;;
9508;SDS011;4792;50.088;8.122;2022-11-20T06:03:53;583.73;;;42.67;;
9508;SDS011;4792;50.088;8.122;2022-11-20T06:06:22;240.67;;;26.10;;
9508;SDS011;4792;50.088;8.122;2022-11-20T06:08:51;35.73;;;17.90;;
9508;SDS011;4792;50.088;8.122;2022-11-20T06:11:19;36.27;;;16.43;;
9508;SDS011;4792;50.088;8.122;2022-11-20T06:13:48;29.83;;;16.43;;
9508;SDS011;4792;50.088;8.122;2022-11-20T06:16:17;37.40;;;18.00;;
9508;SDS011;4792;50.088;8.122;2022-11-20T06:18:46;25.03;;;15.47;;
9508;SDS011;4792;50.088;8.122;2022-11-20T06:21:16;29.33;;;16.57;;
9508;SDS011;4792;50.088;8.122;2022-11-20T06:23:46;28.33;;;16.67;;
9508;SDS011;4792;50.088;8.122;2022-11-20T06:26:16;25.60;;;15.73;;
9508;SDS011;4792;50.088;8.122;2022-11-20T06:28:45;26.60;;;14.80;;
9508;SDS011;4792;50.088;8.122;2022-11-20T06:31:14;25.17;;;14.77;;
9508;SDS011;4792;50.088;8.122;2022-11-20T06:33:44;83.20;;;20.90;;
9508;SDS011;4792;50.088;8.122;2022-11-20T06:36:13;31.63;;;17.83;;
9508;SDS011;4792;50.088;8.122;2022-11-20T06:38:44;62.17;;;18.23;;
9508;SDS011;4792;50.088;8.122;2022-11-20T06:41:13;48.37;;;16.93;;
9508;SDS011;4792;50.088;8.122;2022-11-20T06:43:43;249.03;;;25.50;;
9508;SDS011;4792;50.088;8.122;2022-11-20T06:46:12;482.00;;;35.23;;
9508;SDS011;4792;50.088;8.122;2022-11-20T06:48:43;171.30;;;21.50;;
9508;SDS011;4792;50.088;8.122;2022-11-20T06:51:12;389.73;;;30.07;;
9508;SDS011;4792;50.088;8.122;2022-11-20T06:53:41;377.80;;;29.77;;
9508;SDS011;4792;50.088;8.122;2022-11-20T06:56:10;241.50;;;25.27;;
9508;SDS011;4792;50.088;8.122;2022-11-20T06:58:38;45.40;;;16.43;;
9508;SDS011;4792;50.088;8.122;2022-11-20T07:01:07;45.47;;;17.47;;
9508;SDS011;4792;50.088;8.122;2022-11-20T07:03:38;42.23;;;17.03;;
9508;SDS011;4792;50.088;8.122;2022-11-20T07:06:07;29.77;;;14.27;;
9508;SDS011;4792;50.088;8.122;2022-11-20T07:08:35;25.83;;;14.73;;
9508;SDS011;4792;50.088;8.122;2022-11-20T07:11:07;27.20;;;14.83;;
9508;SDS011;4792;50.088;8.122;2022-11-20T07:13:36;25.13;;;13.67;;
9508;SDS011;4792;50.088;8.122;2022-11-20T07:16:06;59.30;;;16.83;;
9508;SDS011;4792;50.088;8.122;2022-11-20T07:18:35;163.97;;;20.37;;
9508;SDS011;4792;50.088;8.122;2022-11-20T07:21:04;233.80;;;30.90;;
9508;SDS011;4792;50.088;8.122;2022-11-20T07:23:34;169.40;;;23.67;;
9508;SDS011;4792;50.088;8.122;2022-11-20T07:26:03;53.37;;;15.93;;
9508;SDS011;4792;50.088;8.122;2022-11-20T07:28:32;311.83;;;26.40;;
9508;SDS011;4792;50.088;8.122;2022-11-20T07:31:02;221.90;;;26.03;;
9508;SDS011;4792;50.088;8.122;2022-11-20T07:33:33;751.97;;;48.90;;
9508;SDS011;4792;50.088;8.122;2022-11-20T07:36:01;201.60;;;24.47;;
9508;SDS011;4792;50.088;8.122;2022-11-20T07:38:30;36.30;;;17.47;;
9508;SDS011;4792;50.088;8.122;2022-11-20T07:40:58;34.73;;;15.90;;
9508;SDS011;4792;50.088;8.122;2022-11-20T07:43:28;225.43;;;25.57;;
9508;SDS011;4792;50.088;8.122;2022-11-20T07:45:56;150.17;;;20.53;;
9508;SDS011;4792;50.088;8.122;2022-11-20T07:48:25;284.30;;;26.90;;
9508;SDS011;4792;50.088;8.122;2022-11-20T07:50:54;75.57;;;17.20;;
9508;SDS011;4792;50.088;8.122;2022-11-20T07:53:22;27.20;;;15.03;;
9508;SDS011;4792;50.088;8.122;2022-11-20T07:55:50;30.67;;;14.10;;
9508;SDS011;4792;50.088;8.122;2022-11-20T07:58:19;27.23;;;14.63;;
9508;SDS011;4792;50.088;8.122;2022-11-20T08:00:47;194.43;;;24.03;;
9508;SDS011;4792;50.088;8.122;2022-11-20T08:03:16;163.13;;;18.30;;
9508;SDS011;4792;50.088;8.122;2022-11-20T08:05:51;114.60;;;19.50;;
9508;SDS011;4792;50.088;8.122;2022-11-20T08:08:19;81.57;;;18.33;;
9508;SDS011;4792;50.088;8.122;2022-11-20T08:10:49;253.53;;;23.37;;
9508;SDS011;4792;50.088;8.122;2022-11-20T08:13:17;331.27;;;23.23;;
9508;SDS011;4792;50.088;8.122;2022-11-20T08:16:02;84.90;;;17.83;;
9508;SDS011;4792;50.088;8.122;2022-11-20T08:18:31;182.47;;;22.60;;
9508;SDS011;4792;50.088;8.122;2022-11-20T08:21:02;168.27;;;21.90;;
9508;SDS011;4792;50.088;8.122;2022-11-20T08:23:31;196.60;;;24.03;;
9508;SDS011;4792;50.088;8.122;2022-11-20T08:25:59;36.87;;;17.50;;
9508;SDS011;4792;50.088;8.122;2022-11-20T08:28:27;154.83;;;21.27;;
9508;SDS011;4792;50.088;8.122;2022-11-20T08:30:58;69.40;;;19.90;;
9508;SDS011;4792;50.088;8.122;2022-11-20T08:33:27;33.03;;;15.67;;
9508;SDS011;4792;50.088;8.122;2022-11-20T08:35:58;32.37;;;16.53;;
9508;SDS011;4792;50.088;8.122;2022-11-20T08:38:28;34.40;;;17.53;;
9508;SDS011;4792;50.088;8.122;2022-11-20T08:40:57;30.73;;;16.40;;
9508;SDS011;4792;50.088;8.122;2022-11-20T08:43:39;35.77;;;19.00;;
9508;SDS011;4792;50.088;8.122;2022-11-20T08:46:07;23.93;;;12.60;;
9508;SDS011;4792;50.088;8.122;2022-11-20T08:48:36;24.70;;;13.83;;
9508;SDS011;4792;50.088;8.122;2022-11-20T08:51:04;172.93;;;26.10;;
9508;SDS011;4792;50.088;8.122;2022-11-20T08:53:34;239.93;;;28.57;;
9508;SDS011;4792;50.088;8.122;2022-11-20T08:56:02;215.83;;;25.70;;
9508;SDS011;4792;50.088;8.122;2022-11-20T08:58:31;340.13;;;26.00;;
9508;SDS011;4792;50.088;8.122;2022-11-20T09:01:19;173.77;;;21.73;;
9508;SDS011;4792;50.088;8.122;2022-11-20T09:03:49;184.47;;;20.80;;
9508;SDS011;4792;50.088;8.122;2022-11-20T09:06:17;477.67;;;32.30;;
9508;SDS011;4792;50.088;8.122;2022-11-20T09:08:47;227.83;;;27.43;;
9508;SDS011;4792;50.088;8.122;2022-11-20T09:11:19;315.37;;;27.23;;
9508;SDS011;4792;50.088;8.122;2022-11-20T09:13:48;36.07;;;13.17;;
9508;SDS011;4792;50.088;8.122;2022-11-20T09:16:17;22.33;;;11.77;;
9508;SDS011;4792;50.088;8.122;2022-11-20T09:18:45;24.37;;;13.60;;
9508;SDS011;4792;50.088;8.122;2022-11-20T09:21:27;56.73;;;21.57;;
9508;SDS011;4792;50.088;8.122;2022-11-20T09:23:56;36.83;;;19.27;;
9508;SDS011;4792;50.088;8.122;2022-11-20T09:26:25;35.57;;;19.33;;
9508;SDS011;4792;50.088;8.122;2022-11-20T09:28:53;24.43;;;13.90;;
9508;SDS011;4792;50.088;8.122;2022-11-20T09:31:24;18.70;;;10.43;;
9508;SDS011;4792;50.088;8.122;2022-11-20T09:33:53;17.77;;;10.53;;
9508;SDS011;4792;50.088;8.122;2022-11-20T09:36:21;17.83;;;10.70;;
9508;SDS011;4792;50.088;8.122;2022-11-20T09:38:49;17.67;;;9.27;;
9508;SDS011;4792;50.088;8.122;2022-11-20T09:41:24;23.60;;;11.27;;
9508;SDS011;4792;50.088;8.122;2022-11-20T09:44:24;19.60;;;11.30;;
9508;SDS011;4792;50.088;8.122;2022-11-20T09:47:06;20.83;;;12.00;;
9508;SDS011;4792;50.088;8.122;2022-11-20T09:49:42;29.20;;;14.40;;
9508;SDS011;4792;50.088;8.122;2022-11-20T09:52:26;25.03;;;12.80;;
9508;SDS011;4792;50.088;8.122;2022-11-20T09:55:06;34.57;;;14.33;;
9508;SDS011;4792;50.088;8.122;2022-11-20T09:57:39;526.87;;;42.10;;
9508;SDS011;4792;50.088;8.122;2022-11-20T10:00:10;528.43;;;39.20;;
9508;SDS011;4792;50.088;8.122;2022-11-20T10:02:42;164.50;;;22.53;;
9508;SDS011;4792;50.088;8.122;2022-11-20T10:05:15;178.93;;;25.17;;
9508;SDS011;4792;50.088;8.122;2022-11-20T10:07:48;344.97;;;32.40;;
9508;SDS011;4792;50.088;8.122;2022-11-20T10:10:27;60.93;;;20.60;;
9508;SDS011;4792;50.088;8.122;2022-11-20T10:13:12;150.63;;;25.83;;
9508;SDS011;4792;50.088;8.122;2022-11-20T10:15:58;284.47;;;41.80;;
9508;SDS011;4792;50.088;8.122;2022-11-20T10:18:44;510.23;;;40.90;;
9508;SDS011;4792;50.088;8.122;2022-11-20T10:21:25;489.83;;;38.57;;
9508;SDS011;4792;50.088;8.122;2022-11-20T10:24:24;162.30;;;25.37;;
9508;SDS011;4792;50.088;8.122;2022-11-20T10:27:06;405.63;;;35.07;;
9508;SDS011;4792;50.088;8.122;2022-11-20T10:29:47;284.97;;;31.83;;
9508;SDS011;4792;50.088;8.122;2022-11-20T10:32:28;489.83;;;38.47;;
9508;SDS011;4792;50.088;8.122;2022-11-20T10:35:05;141.70;;;25.50;;
9508;SDS011;4792;50.088;8.122;2022-11-20T10:37:42;287.53;;;32.33;;
9508;SDS011;4792;50.088;8.122;2022-11-20T10:40:18;560.93;;;42.90;;
9508;SDS011;4792;50.088;8.122;2022-11-20T10:42:56;386.97;;;36.83;;
9508;SDS011;4792;50.088;8.122;2022-11-20T10:45:39;837.50;;;56.33;;
9508;SDS011;4792;50.088;8.122;2022-11-20T10:48:16;922.77;;;63.03;;
9508;SDS011;4792;50.088;8.122;2022-11-20T10:50:59;173.37;;;45.47;;
9508;SDS011;4792;50.088;8.122;2022-11-20T10:53:45;142.83;;;26.90;;
9508;SDS011;4792;50.088;8.122;2022-11-20T10:56:23;42.97;;;20.70;;
9508;SDS011;4792;50.088;8.122;2022-11-20T10:59:05;96.30;;;20.97;;
9508;SDS011;4792;50.088;8.122;2022-11-20T11:01:52;221.33;;;49.47;;
9508;SDS011;4792;50.088;8.122;2022-11-20T11:04:30;66.90;;;23.33;;
9508;SDS011;4792;50.088;8.122;2022-11-20T11:07:06;365.67;;;43.57;;
9508;SDS011;4792;50.088;8.122;2022-11-20T11:09:39;669.40;;;53.63;;
9508;SDS011;4792;50.088;8.122;2022-11-20T11:12:11;92.57;;;25.03;;
9508;SDS011;4792;50.088;8.122;2022-11-20T11:14:43;91.93;;;29.83;;
9508;SDS011;4792;50.088;8.122;2022-11-20T11:17:24;93.73;;;24.70;;
9508;SDS011;4792;50.088;8.122;2022-11-20T11:19:57;54.27;;;23.67;;
9508;SDS011;4792;50.088;8.122;2022-11-20T11:22:27;41.07;;;22.43;;
9508;SDS011;4792;50.088;8.122;2022-11-20T11:24:57;58.23;;;30.80;;
9508;SDS011;4792;50.088;8.122;2022-11-20T11:27:26;57.20;;;32.20;;
9508;SDS011;4792;50.088;8.122;2022-11-20T11:30:02;34.77;;;19.83;;
9508;SDS011;4792;50.088;8.122;2022-11-20T11:32:41;34.80;;;19.37;;
9508;SDS011;4792;50.088;8.122;2022-11-20T11:35:20;147.50;;;27.43;;
9508;SDS011;4792;50.088;8.122;2022-11-20T11:37:50;68.87;;;23.40;;
9508;SDS011;4792;50.088;8.122;2022-11-20T11:40:21;158.20;;;25.03;;
9508;SDS011;4792;50.088;8.122;2022-11-20T11:42:55;37.43;;;20.90;;
9508;SDS011;4792;50.088;8.122;2022-11-20T11:45:26;46.60;;;24.93;;
9508;SDS011;4792;50.088;8.122;2022-11-20T11:47:55;45.63;;;24.73;;
9508;SDS011;4792;50.088;8.122;2022-11-20T11:50:25;43.00;;;24.60;;
9508;SDS011;4792;50.088;8.122;2022-11-20T11:52:56;58.30;;;31.97;;
9508;SDS011;4792;50.088;8.122;2022-11-20T11:55:31;39.63;;;21.80;;
9508;SDS011;4792;50.088;8.122;2022-11-20T11:58:09;37.87;;;21.40;;
9508;SDS011;4792;50.088;8.122;2022-11-20T12:00:47;33.87;;;20.50;;
9508;SDS011;4792;50.088;8.122;2022-11-20T12:03:20;53.73;;;24.33;;
9508;SDS011;4792;50.088;8.122;2022-11-20T12:05:55;41.80;;;23.93;;
9508;SDS011;4792;50.088;8.122;2022-11-20T12:08:26;119.00;;;24.30;;
9508;SDS011;4792;50.088;8.122;2022-11-20T12:11:00;76.63;;;25.47;;
9508;SDS011;4792;50.088;8.122;2022-11-20T12:13:39;136.80;;;29.10;;
9508;SDS011;4792;50.088;8.122;2022-11-20T12:16:13;177.70;;;30.57;;
9508;SDS011;4792;50.088;8.122;2022-11-20T12:18:49;256.27;;;32.30;;
9508;SDS011;4792;50.088;8.122;2022-11-20T12:21:20;449.43;;;39.80;;
9508;SDS011;4792;50.088;8.122;2022-11-20T12:24:04;492.87;;;40.77;;
9508;SDS011;4792;50.088;8.122;2022-11-20T12:26:56;473.00;;;40.47;;
9508;SDS011;4792;50.088;8.122;2022-11-20T12:29:37;128.67;;;26.83;;
9508;SDS011;4792;50.088;8.122;2022-11-20T12:35:32;453.43;;;36.90;;
9508;SDS011;4792;50.088;8.122;2022-11-20T12:38:20;54.70;;;23.87;;
9508;SDS011;4792;50.088;8.122;2022-11-20T12:41:13;172.00;;;25.87;;
9508;SDS011;4792;50.088;8.122;2022-11-20T12:44:05;110.93;;;22.37;;
9508;SDS011;4792;50.088;8.122;2022-11-20T12:47:09;206.87;;;29.63;;
9508;SDS011;4792;50.088;8.122;2022-11-20T12:49:47;35.97;;;20.37;;
9508;SDS011;4792;50.088;8.122;2022-11-20T12:52:28;314.20;;;33.40;;
9508;SDS011;4792;50.088;8.122;2022-11-20T12:55:10;371.53;;;32.43;;
9508;SDS011;4792;50.088;8.122;2022-11-20T12:57:53;48.37;;;22.50;;
9508;SDS011;4792;50.088;8.122;2022-11-20T13:00:25;40.97;;;21.93;;
9508;SDS011;4792;50.088;8.122;2022-11-20T13:03:06;36.80;;;20.17;;
9508;SDS011;4792;50.088;8.122;2022-11-20T13:05:50;152.73;;;23.77;;
9508;SDS011;4792;50.088;8.122;2022-11-20T13:08:26;163.83;;;36.47;;
9508;SDS011;4792;50.088;8.122;2022-11-20T13:10:59;247.13;;;32.57;;
9508;SDS011;4792;50.088;8.122;2022-11-20T13:13:36;69.70;;;20.70;;
9508;SDS011;4792;50.088;8.122;2022-11-20T13:16:14;39.80;;;20.47;;
9508;SDS011;4792;50.088;8.122;2022-11-20T13:18:46;33.67;;;18.33;;
9508;SDS011;4792;50.088;8.122;2022-11-20T13:21:15;68.00;;;19.07;;
9508;SDS011;4792;50.088;8.122;2022-11-20T13:23:46;157.87;;;23.53;;
9508;SDS011;4792;50.088;8.122;2022-11-20T13:26:16;76.80;;;21.30;;
9508;SDS011;4792;50.088;8.122;2022-11-20T13:28:46;27.97;;;17.53;;
9508;SDS011;4792;50.088;8.122;2022-11-20T13:31:30;26.47;;;16.67;;
9508;SDS011;4792;50.088;8.122;2022-11-20T13:34:00;29.20;;;17.13;;
9508;SDS011;4792;50.088;8.122;2022-11-20T13:36:31;30.80;;;17.70;;
9508;SDS011;4792;50.088;8.122;2022-11-20T13:39:02;27.50;;;16.77;;
9508;SDS011;4792;50.088;8.122;2022-11-20T13:41:31;30.53;;;17.70;;
9508;SDS011;4792;50.088;8.122;2022-11-20T13:44:06;28.97;;;17.30;;
9508;SDS011;4792;50.088;8.122;2022-11-20T13:46:40;24.97;;;16.73;;
9508;SDS011;4792;50.088;8.122;2022-11-20T13:49:15;27.07;;;16.73;;
9508;SDS011;4792;50.088;8.122;2022-11-20T13:51:46;44.00;;;17.87;;
9508;SDS011;4792;50.088;8.122;2022-11-20T13:54:29;78.17;;;18.03;;
9508;SDS011;4792;50.088;8.122;2022-11-20T14:00:25;86.00;;;21.53;;
9508;SDS011;4792;50.088;8.122;2022-11-20T14:03:01;38.40;;;24.40;;
9508;SDS011;4792;50.088;8.122;2022-11-20T14:05:39;37.77;;;18.47;;
9508;SDS011;4792;50.088;8.122;2022-11-20T14:08:17;84.33;;;20.67;;
9508;SDS011;4792;50.088;8.122;2022-11-20T14:11:03;59.93;;;18.03;;
9508;SDS011;4792;50.088;8.122;2022-11-20T14:13:33;34.67;;;18.20;;
9508;SDS011;4792;50.088;8.122;2022-11-20T14:16:01;29.80;;;16.83;;
9508;SDS011;4792;50.088;8.122;2022-11-20T14:18:29;80.73;;;18.50;;
9508;SDS011;4792;50.088;8.122;2022-11-20T14:20:59;262.60;;;24.97;;
9508;SDS011;4792;50.088;8.122;2022-11-20T14:23:28;217.70;;;25.13;;
9508;SDS011;4792;50.088;8.122;2022-11-20T14:25:57;297.40;;;31.57;;
9508;SDS011;4792;50.088;8.122;2022-11-20T14:28:27;375.53;;;26.77;;
9508;SDS011;4792;50.088;8.122;2022-11-20T14:30:57;77.77;;;17.50;;
9508;SDS011;4792;50.088;8.122;2022-11-20T14:33:26;210.67;;;22.07;;
9508;SDS011;4792;50.088;8.122;2022-11-20T14:35:55;271.90;;;26.40;;
9508;SDS011;4792;50.088;8.122;2022-11-20T14:38:26;88.27;;;23.23;;
9508;SDS011;4792;50.088;8.122;2022-11-20T14:41:05;356.40;;;32.13;;
9508;SDS011;4792;50.088;8.122;2022-11-20T14:43:35;47.40;;;18.23;;
9508;SDS011;4792;50.088;8.122;2022-11-20T14:46:05;308.13;;;40.60;;
9508;SDS011;4792;50.088;8.122;2022-11-20T14:48:37;288.90;;;25.63;;
9508;SDS011;4792;50.088;8.122;2022-11-20T14:51:08;124.37;;;19.50;;
9508;SDS011;4792;50.088;8.122;2022-11-20T14:53:38;48.60;;;17.13;;
9508;SDS011;4792;50.088;8.122;2022-11-20T14:56:07;38.00;;;16.13;;
9508;SDS011;4792;50.088;8.122;2022-11-20T14:58:37;32.90;;;18.40;;
9508;SDS011;4792;50.088;8.122;2022-11-20T15:01:06;88.87;;;18.80;;
9508;SDS011;4792;50.088;8.122;2022-11-20T15:03:35;240.20;;;24.10;;
9508;SDS011;4792;50.088;8.122;2022-11-20T15:06:05;84.27;;;17.13;;
9508;SDS011;4792;50.088;8.122;2022-11-20T15:08:34;23.50;;;15.90;;
9508;SDS011;4792;50.088;8.122;2022-11-20T15:11:02;162.87;;;24.30;;
9508;SDS011;4792;50.088;8.122;2022-11-20T15:13:31;25.60;;;16.80;;
9508;SDS011;4792;50.088;8.122;2022-11-20T15:16:03;29.20;;;17.90;;
9508;SDS011;4792;50.088;8.122;2022-11-20T15:18:40;37.80;;;17.17;;